createdAt,value
2022-10-07T00:00:36.997Z,5.66
2022-10-07T00:03:28.928Z,5.67
2022-10-07T00:06:08.216Z,5.67
2022-10-07T00:08:39.130Z,5.67
2022-10-07T00:11:14.839Z,5.68
2022-10-07T00:13:47.464Z,5.68
2022-10-07T00:16:21.386Z,5.68
2022-10-07T00:18:57.993Z,5.70
2022-10-07T00:21:30.575Z,5.70
2022-10-07T00:24:02.732Z,5.70
2022-10-07T00:26:35.873Z,5.72
2022-10-07T00:29:10.879Z,5.73
2022-10-07T00:31:42.634Z,5.76
2022-10-07T00:34:15.514Z,5.77
2022-10-07T00:36:51.785Z,5.74
2022-10-07T00:39:22.334Z,5.71
2022-10-07T00:41:55.588Z,5.68
2022-10-07T00:44:38.102Z,5.63
2022-10-07T00:47:30.756Z,5.57
2022-10-07T00:50:16.947Z,5.53
2022-10-07T00:52:55.676Z,5.50
2022-10-07T00:55:30.444Z,5.47
2022-10-07T00:58:04.432Z,5.41
2022-10-07T01:00:36.101Z,5.38
2022-10-07T01:03:08.166Z,5.37
2022-10-07T01:05:38.011Z,5.36
2022-10-07T01:08:09.127Z,5.35
2022-10-07T01:11:18.880Z,5.35
2022-10-07T01:14:08.436Z,5.33
2022-10-07T01:16:54.290Z,5.32
2022-10-07T01:20:02.211Z,5.29
2022-10-07T01:23:04.442Z,5.27
2022-10-07T01:25:59.363Z,5.25
2022-10-07T01:28:53.979Z,5.21
2022-10-07T01:31:32.799Z,5.18
2022-10-07T01:34:04.369Z,5.17
2022-10-07T01:36:37.800Z,5.15
2022-10-07T01:39:17.100Z,5.13
2022-10-07T01:41:47.088Z,5.10
2022-10-07T01:44:16.807Z,5.07
2022-10-07T01:46:48.207Z,5.05
2022-10-07T01:49:18.787Z,5.02
2022-10-07T01:52:14.108Z,5.01
2022-10-07T01:55:05.525Z,4.99
2022-10-07T01:57:42.048Z,4.97
2022-10-07T02:00:15.560Z,4.95
2022-10-07T02:03:21.765Z,4.91
2022-10-07T02:06:12.502Z,4.95
2022-10-07T02:08:45.002Z,4.93
2022-10-07T02:11:28.856Z,4.86
2022-10-07T02:14:13.208Z,4.79
2022-10-07T02:16:48.779Z,4.75
2022-10-07T02:20:01.123Z,4.70
2022-10-07T02:22:34.296Z,4.64
2022-10-07T02:25:07.899Z,4.61
2022-10-07T02:27:41.705Z,4.57
2022-10-07T02:30:16.433Z,4.53
2022-10-07T02:32:56.081Z,4.50
2022-10-07T02:35:58.988Z,4.48
2022-10-07T02:38:30.992Z,4.44
2022-10-07T02:41:14.219Z,4.41
2022-10-07T02:43:51.790Z,4.39
2022-10-07T02:46:29.654Z,4.39
2022-10-07T02:49:03.257Z,4.40
2022-10-07T02:51:42.328Z,4.42
2022-10-07T02:54:13.008Z,4.43
2022-10-07T02:56:43.124Z,4.42
2022-10-07T02:59:14.927Z,4.36
2022-10-07T03:01:50.760Z,4.29
2022-10-07T03:04:22.062Z,4.25
2022-10-07T03:06:52.135Z,4.21
2022-10-07T03:09:23.147Z,4.18
2022-10-07T03:11:53.586Z,4.15
2022-10-07T03:14:25.342Z,4.14
2022-10-07T03:16:54.999Z,4.13
2022-10-07T03:19:24.390Z,4.13
2022-10-07T03:21:57.921Z,4.12
2022-10-07T03:24:29.425Z,4.09
2022-10-07T03:26:58.383Z,4.08
2022-10-07T03:29:28.590Z,4.07
2022-10-07T03:31:57.629Z,4.08
2022-10-07T03:34:27.762Z,4.09
2022-10-07T03:51:25.497Z,4.50
2022-10-07T03:53:57.844Z,4.50
2022-10-07T03:56:29.080Z,4.41
2022-10-07T03:58:58.895Z,4.39
2022-10-07T04:01:31.858Z,4.34
2022-10-07T04:04:02.091Z,4.30
2022-10-07T04:06:35.193Z,4.24
2022-10-07T04:09:07.176Z,4.18
2022-10-07T04:11:36.663Z,4.13
2022-10-07T04:14:06.195Z,4.07
2022-10-07T04:16:38.140Z,4.06
2022-10-07T04:19:08.321Z,4.04
2022-10-07T04:21:37.211Z,4.04
2022-10-07T04:24:06.814Z,4.03
2022-10-07T04:26:36.192Z,4.05
2022-10-07T04:29:05.009Z,4.06
2022-10-07T04:31:34.504Z,4.07
2022-10-07T04:34:07.667Z,4.08
2022-10-07T04:36:40.994Z,4.06
2022-10-07T04:39:37.427Z,4.05
2022-10-07T04:42:34.000Z,4.08
2022-10-07T04:45:03.218Z,4.10
2022-10-07T04:47:36.083Z,4.09
2022-10-07T04:50:06.719Z,4.11
2022-10-07T04:52:35.756Z,4.15
2022-10-07T04:55:05.498Z,4.17
2022-10-07T04:57:35.763Z,4.19
2022-10-07T05:00:06.295Z,4.20
2022-10-07T05:02:36.875Z,4.21
2022-10-07T05:05:10.174Z,4.25
2022-10-07T05:07:38.874Z,4.30
2022-10-07T05:10:08.356Z,4.31
2022-10-07T05:12:37.241Z,4.39
2022-10-07T05:15:06.434Z,4.47
2022-10-07T05:17:36.560Z,4.60
2022-10-07T05:20:06.510Z,4.73
2022-10-07T05:22:36.289Z,4.86
2022-10-07T05:25:05.739Z,4.98
2022-10-07T05:27:34.637Z,5.13
2022-10-07T05:30:04.407Z,5.33
2022-10-07T05:32:33.739Z,5.58
2022-10-07T05:35:03.903Z,5.84
2022-10-07T05:37:34.436Z,6.21
2022-10-07T05:40:04.362Z,6.61
2022-10-07T05:42:33.073Z,6.86
2022-10-07T05:45:02.542Z,7.04
2022-10-07T05:47:33.563Z,7.32
2022-10-07T05:50:02.367Z,7.58
2022-10-07T05:52:32.084Z,7.69
2022-10-07T05:55:02.212Z,7.84
2022-10-07T05:57:31.261Z,7.95
2022-10-07T06:00:00.387Z,8.10
2022-10-07T06:02:29.474Z,8.33
2022-10-07T06:04:58.285Z,8.59
2022-10-07T06:07:29.434Z,8.92
2022-10-07T06:10:18.277Z,9.19
2022-10-07T06:13:05.738Z,9.67
2022-10-07T06:15:36.535Z,10.04
2022-10-07T06:18:05.678Z,10.17
2022-10-07T06:20:39.171Z,10.40
2022-10-07T06:23:18.464Z,10.48
2022-10-07T06:25:58.632Z,10.59
2022-10-07T06:28:37.378Z,10.70
2022-10-07T06:31:08.952Z,10.92
2022-10-07T06:33:39.788Z,11.27
2022-10-07T06:36:13.945Z,11.66
2022-10-07T06:38:48.377Z,12.17
2022-10-07T06:41:24.330Z,12.38
2022-10-07T06:44:07.967Z,12.68
2022-10-07T06:46:36.860Z,12.62
2022-10-07T06:49:05.744Z,12.76
2022-10-07T06:51:34.561Z,12.87
2022-10-07T06:54:03.805Z,13.04
2022-10-07T06:56:34.101Z,13.36
2022-10-07T06:59:03.661Z,13.30
2022-10-07T07:01:39.783Z,13.81
2022-10-07T07:04:09.319Z,14.07
2022-10-07T07:06:39.837Z,14.84
2022-10-07T07:09:09.758Z,15.26
2022-10-07T07:11:44.583Z,15.28
2022-10-07T07:14:19.002Z,15.07
2022-10-07T07:16:53.808Z,15.20
2022-10-07T07:19:23.071Z,15.29
2022-10-07T07:21:51.982Z,15.45
2022-10-07T07:24:23.826Z,15.80
2022-10-07T07:26:53.489Z,16.09
2022-10-07T07:29:23.014Z,16.54
2022-10-07T07:31:56.703Z,17.01
2022-10-07T07:34:26.733Z,17.10
2022-10-07T07:36:55.919Z,17.16
2022-10-07T10:57:17.444Z,29.02
2022-10-07T11:00:05.702Z,29.65
2022-10-07T11:02:37.167Z,29.75
2022-10-07T11:05:26.477Z,29.39
2022-10-07T11:08:10.684Z,29.88
2022-10-07T11:10:56.967Z,29.98
2022-10-07T11:14:23.897Z,30.51
2022-10-07T11:17:01.522Z,30.16
2022-10-07T11:19:40.026Z,29.31
2022-10-07T11:22:16.615Z,30.47
2022-10-07T11:24:55.189Z,30.71
2022-10-07T11:27:23.549Z,31.23
2022-10-07T11:30:17.995Z,31.38
2022-10-07T11:33:18.322Z,31.57
2022-10-07T11:35:55.697Z,31.95
2022-10-07T11:38:34.166Z,32.23
2022-10-07T11:41:25.754Z,31.49
2022-10-07T11:43:58.922Z,30.19
2022-10-07T11:46:30.691Z,31.67
2022-10-07T11:49:05.228Z,31.93
2022-10-07T11:51:45.240Z,32.00
2022-10-07T11:54:18.387Z,32.18
2022-10-07T11:56:52.845Z,31.28
2022-10-07T11:59:34.090Z,31.95
2022-10-07T12:02:05.576Z,32.05
2022-10-07T12:04:35.540Z,31.95
2022-10-07T12:07:35.226Z,32.22
2022-10-07T12:10:07.704Z,32.54
2022-10-07T12:12:45.466Z,31.87
2022-10-07T12:15:35.112Z,31.44
2022-10-07T12:18:05.702Z,30.78
2022-10-07T12:34:45.197Z,27.35
2022-10-07T12:37:38.611Z,27.46
2022-10-07T12:40:27.904Z,27.51
2022-10-07T12:43:11.079Z,26.02
2022-10-07T12:45:45.656Z,26.58
2022-10-07T12:48:20.893Z,26.96
2022-10-07T12:50:53.509Z,27.40
2022-10-07T12:53:26.484Z,27.61
2022-10-07T12:55:56.605Z,28.16
2022-10-07T12:58:53.466Z,29.04
2022-10-07T13:02:01.216Z,29.53
2022-10-07T13:04:36.293Z,30.41
2022-10-07T13:07:10.637Z,30.79
2022-10-07T13:09:51.802Z,31.10
2022-10-07T13:12:35.259Z,31.17
2022-10-07T13:15:15.765Z,30.31
2022-10-07T13:17:59.097Z,29.99
2022-10-07T13:21:01.747Z,29.90
2022-10-07T13:23:32.358Z,30.51
2022-10-07T13:26:03.606Z,29.92
2022-10-07T13:28:47.461Z,30.27
2022-10-07T13:31:26.370Z,30.61
2022-10-07T13:33:57.055Z,30.36
2022-10-07T13:36:30.354Z,29.88
2022-10-07T13:39:19.535Z,30.06
2022-10-07T13:41:51.347Z,30.04
2022-10-07T13:44:21.055Z,30.80
2022-10-07T13:47:00.184Z,31.18
2022-10-07T13:49:47.322Z,30.92
2022-10-07T13:52:31.220Z,31.14
2022-10-07T13:54:59.751Z,30.99
2022-10-07T13:57:31.692Z,31.14
2022-10-07T14:00:00.515Z,31.14
2022-10-07T14:02:47.861Z,31.13
2022-10-07T14:05:55.598Z,31.04
2022-10-07T14:08:33.235Z,30.86
2022-10-07T14:11:03.795Z,30.51
2022-10-07T14:13:40.094Z,30.29
2022-10-07T14:16:22.485Z,30.32
2022-10-07T14:18:52.988Z,29.86
2022-10-07T14:21:24.019Z,30.08
2022-10-07T14:23:53.684Z,30.17
2022-10-07T14:26:22.313Z,30.05
2022-10-07T14:28:50.859Z,29.24
2022-10-07T14:31:39.842Z,28.77
2022-10-07T14:34:36.030Z,28.90
2022-10-07T14:37:10.109Z,28.41
2022-10-07T14:39:43.284Z,27.85
2022-10-07T14:42:16.377Z,27.28
2022-10-07T14:44:44.971Z,27.47
2022-10-07T14:47:15.043Z,27.14
2022-10-07T14:49:43.598Z,26.79
2022-10-07T14:52:51.906Z,26.44
2022-10-07T14:55:24.876Z,26.11
2022-10-07T14:57:53.452Z,26.00
2022-10-07T15:00:25.750Z,25.48
2022-10-07T15:02:54.869Z,24.71
2022-10-07T15:05:24.762Z,24.35
2022-10-07T15:07:53.477Z,23.69
2022-10-07T15:10:25.989Z,23.19
2022-10-07T15:12:59.493Z,22.70
2022-10-07T15:15:27.957Z,22.45
2022-10-07T15:33:01.526Z,20.75
2022-10-07T15:48:56.543Z,18.60
2022-10-07T15:51:26.357Z,17.90
2022-10-07T15:53:54.909Z,17.54
2022-10-07T15:56:25.528Z,17.20
2022-10-07T15:58:53.979Z,16.87
2022-10-07T16:01:22.424Z,16.64
2022-10-07T16:03:51.126Z,16.44
2022-10-07T16:06:22.805Z,16.27
2022-10-07T16:08:54.151Z,16.18
2022-10-07T16:11:23.431Z,16.11
2022-10-07T16:13:53.265Z,16.05
2022-10-07T16:16:25.753Z,15.94
2022-10-07T16:18:57.645Z,15.80
2022-10-07T16:21:35.794Z,15.63
2022-10-07T16:24:09.482Z,15.44
2022-10-07T16:26:38.189Z,15.27
2022-10-07T16:29:31.434Z,15.13
2022-10-07T16:32:00.182Z,14.97
2022-10-07T16:34:29.369Z,14.84
2022-10-07T16:36:58.882Z,14.71
2022-10-07T16:39:27.763Z,14.61
2022-10-07T16:41:56.784Z,14.50
2022-10-07T16:44:25.921Z,14.40
2022-10-07T16:46:57.471Z,14.35
2022-10-07T16:49:28.542Z,14.31
2022-10-07T16:51:58.082Z,14.28
2022-10-07T16:54:30.063Z,14.25
2022-10-07T16:56:58.847Z,14.22
2022-10-07T16:59:27.271Z,14.19
2022-10-07T17:01:57.120Z,14.17
2022-10-07T17:04:25.757Z,14.15
2022-10-07T17:06:54.370Z,14.12
2022-10-07T17:09:24.977Z,14.08
2022-10-07T17:11:53.471Z,14.00
2022-10-07T17:14:23.237Z,13.94
2022-10-07T17:16:56.215Z,13.88
2022-10-07T17:19:27.029Z,13.80
2022-10-07T17:21:56.824Z,13.69
2022-10-07T17:24:25.422Z,13.54
2022-10-07T17:26:53.962Z,13.43
2022-10-07T17:29:26.494Z,13.29
2022-10-07T17:31:55.352Z,13.20
2022-10-07T17:34:24.101Z,13.17
2022-10-07T17:36:52.528Z,13.12
2022-10-07T17:39:21.265Z,13.07
2022-10-07T17:41:49.801Z,13.03
2022-10-07T17:44:18.800Z,13.01
2022-10-07T17:46:49.226Z,12.98
2022-10-07T17:49:17.809Z,12.95
2022-10-07T17:51:46.244Z,12.93
2022-10-07T17:54:15.704Z,12.91
2022-10-07T17:56:47.999Z,12.88
2022-10-07T17:59:17.261Z,12.86
2022-10-07T18:01:45.824Z,12.81
2022-10-07T18:04:22.557Z,12.75
2022-10-07T18:06:54.024Z,12.73
2022-10-07T18:09:25.007Z,12.71
2022-10-07T18:12:12.581Z,12.69
2022-10-07T18:14:59.697Z,12.65
2022-10-07T18:17:28.065Z,12.60
2022-10-07T18:19:57.253Z,12.55
2022-10-07T18:22:25.903Z,12.50
2022-10-07T18:24:57.411Z,12.45
2022-10-07T18:27:27.401Z,12.41
2022-10-07T18:29:56.596Z,12.36
2022-10-07T18:32:25.777Z,12.30
2022-10-07T18:34:54.098Z,12.25
2022-10-07T18:37:24.006Z,12.21
2022-10-07T18:39:52.405Z,12.19
2022-10-07T18:42:20.921Z,12.19
2022-10-07T18:44:50.829Z,12.20
2022-10-07T18:47:19.600Z,12.19
2022-10-07T18:49:48.037Z,12.18
2022-10-07T18:52:16.477Z,12.17
2022-10-07T18:54:44.884Z,12.13
2022-10-07T18:57:13.329Z,12.09
2022-10-07T18:59:41.930Z,12.04
2022-10-07T19:02:11.689Z,11.98
2022-10-07T19:04:40.314Z,11.93
2022-10-07T19:07:08.748Z,11.88
2022-10-07T19:09:37.228Z,11.82
2022-10-07T19:12:25.605Z,11.76
2022-10-07T19:14:54.442Z,11.71
2022-10-07T19:17:23.400Z,11.66
2022-10-07T19:19:52.291Z,11.62
2022-10-07T19:22:20.879Z,11.60
2022-10-07T19:25:08.616Z,11.56
2022-10-07T19:27:38.675Z,11.52
2022-10-07T19:30:13.086Z,11.48
2022-10-07T19:32:45.109Z,11.43
2022-10-07T19:35:20.903Z,11.39
2022-10-07T19:37:55.693Z,11.34
2022-10-07T19:40:24.601Z,11.32
2022-10-07T19:42:53.192Z,11.29
2022-10-07T19:45:23.822Z,11.27
2022-10-07T19:47:52.406Z,11.19
2022-10-07T19:50:20.799Z,11.08
2022-10-07T19:52:49.130Z,11.00
2022-10-07T19:55:17.511Z,10.96
2022-10-07T19:57:46.300Z,10.92
2022-10-07T20:00:15.081Z,10.88
2022-10-07T20:02:43.523Z,10.84
2022-10-07T20:05:12.156Z,10.82
2022-10-07T20:07:40.739Z,10.79
2022-10-07T20:10:09.442Z,10.76
2022-10-07T20:12:40.262Z,10.73
2022-10-07T20:15:09.586Z,10.68
2022-10-07T20:17:38.940Z,10.66
2022-10-07T20:20:09.081Z,10.62
2022-10-07T20:22:37.859Z,10.60
2022-10-07T20:25:07.584Z,10.55
2022-10-07T20:27:36.062Z,10.51
2022-10-07T20:30:13.893Z,10.47
2022-10-07T20:32:45.635Z,10.44
2022-10-07T20:35:14.712Z,10.42
2022-10-07T20:37:43.222Z,10.38
2022-10-07T20:40:30.473Z,10.35
2022-10-07T20:43:00.772Z,10.31
2022-10-07T20:45:29.753Z,10.27
2022-10-07T20:47:59.966Z,10.23
2022-10-07T20:50:28.469Z,10.20
2022-10-07T20:52:57.246Z,10.18
2022-10-07T20:55:26.117Z,10.17
2022-10-07T20:57:54.907Z,10.14
2022-10-07T21:00:23.339Z,10.10
2022-10-07T21:02:52.020Z,10.08
2022-10-07T21:05:20.749Z,10.05
2022-10-07T21:07:53.785Z,10.02
2022-10-07T21:10:23.549Z,9.99
2022-10-07T21:12:52.404Z,9.95
2022-10-07T21:15:21.425Z,9.93
2022-10-07T21:17:49.910Z,9.90
2022-10-07T21:20:18.907Z,9.87
2022-10-07T21:22:48.810Z,9.82
2022-10-07T21:25:18.628Z,9.79
2022-10-07T21:27:47.110Z,9.78
2022-10-07T21:30:15.584Z,9.77
2022-10-07T21:32:44.380Z,9.76
2022-10-07T21:35:13.531Z,9.74
2022-10-07T21:37:42.727Z,9.70
2022-10-07T21:40:11.207Z,9.67
2022-10-07T21:42:39.840Z,9.62
2022-10-07T21:45:09.620Z,9.60
2022-10-07T21:47:38.542Z,9.58
2022-10-07T21:50:08.260Z,9.56
2022-10-07T22:33:22.871Z,9.23
2022-10-07T22:35:51.589Z,9.27
2022-10-07T22:38:20.236Z,9.25
2022-10-07T22:40:49.189Z,9.20
2022-10-07T22:43:18.616Z,9.15
2022-10-07T22:45:58.759Z,9.10
2022-10-07T22:48:27.556Z,9.04
2022-10-07T22:51:06.778Z,8.99
2022-10-07T22:53:40.746Z,8.95
2022-10-07T22:56:12.222Z,8.92
2022-10-07T22:58:42.666Z,8.88
2022-10-07T23:01:16.423Z,8.80
2022-10-07T23:03:45.693Z,8.73
2022-10-07T23:06:18.924Z,8.65
2022-10-07T23:08:49.077Z,8.60
2022-10-07T23:11:20.322Z,8.56
2022-10-07T23:13:50.032Z,8.52
2022-10-07T23:16:22.456Z,8.44
2022-10-07T23:18:56.122Z,8.36
2022-10-07T23:21:27.994Z,8.29
2022-10-07T23:24:06.314Z,8.25
2022-10-07T23:26:37.613Z,8.20
2022-10-07T23:29:08.109Z,8.17
2022-10-07T23:31:37.079Z,8.15
2022-10-07T23:34:07.671Z,8.13
2022-10-07T23:36:37.260Z,8.11
2022-10-07T23:39:06.079Z,8.09
2022-10-07T23:41:35.721Z,8.09
2022-10-07T23:44:04.995Z,8.03
2022-10-07T23:46:36.932Z,7.95
